Time;durP1;ratioP1;P1;durP2;ratioP2;P2;SDS_P1;SDS_P2;PMS_P1;PMS_P2;Temp;Humidity;BMP_temperature;BMP_pressure;BME280_temperature;BME280_humidity;BME280_pressure;Samples;Min_cycle;Max_cycle;Signal;HPM_P1;HPM_P2
2023/03/30 00:00:45;;;;;;;7.30;6.00;;;;;;;24.72;14.47;101301.77;109605;1260;74303;-87
2023/03/30 00:03:10;;;;;;;8.90;6.20;;;;;;;24.72;14.49;101301.56;109395;1260;67518;-87
2023/03/30 00:05:37;;;;;;;7.90;6.10;;;;;;;24.72;14.44;101307.69;109595;1260;67549;-87
2023/03/30 00:08:03;;;;;;;7.80;6.00;;;;;;;24.72;14.43;101311.65;109598;1260;67145;-87
2023/03/30 00:10:31;;;;;;;7.00;5.90;;;;;;;24.72;14.37;101307.94;109593;1260;67535;-87
2023/03/30 00:13:01;;;;;;;7.90;6.10;;;;;;;24.72;14.27;101304.70;109628;1259;73984;-90
2023/03/30 00:15:26;;;;;;;7.50;6.20;;;;;;;24.72;14.46;101307.52;109614;1260;67612;-87
2023/03/30 00:17:53;;;;;;;9.40;5.60;;;;;;;24.72;14.27;101312.36;109642;1259;67580;-87
2023/03/30 00:20:19;;;;;;;6.80;5.70;;;;;;;24.72;14.27;101311.59;109445;1260;66934;-87
2023/03/30 00:22:46;;;;;;;7.10;5.80;;;;;;;24.71;14.20;101310.00;109595;1259;67532;-87
2023/03/30 00:25:15;;;;;;;7.40;5.80;;;;;;;24.72;14.29;101312.16;109659;1259;67681;-86
2023/03/30 00:27:42;;;;;;;6.20;5.60;;;;;;;24.71;14.25;101312.98;109452;1259;67702;-87
2023/03/30 00:30:18;;;;;;;7.60;6.10;;;;;;;24.71;14.27;101313.96;109458;1262;67545;-87
2023/03/30 00:32:44;;;;;;;6.80;5.80;;;;;;;24.71;14.46;101314.05;109518;1260;67128;-87
2023/03/30 00:35:09;;;;;;;7.90;5.70;;;;;;;24.71;14.40;101313.50;109490;1260;67599;-86
2023/03/30 00:37:36;;;;;;;10.20;5.90;;;;;;;24.71;14.31;101311.07;109585;1259;67737;-87
2023/03/30 00:40:06;;;;;;;6.20;5.20;;;;;;;24.71;14.26;101311.07;109618;1259;67089;-86
2023/03/30 00:42:35;;;;;;;;;;;;;;;24.71;14.22;101311.43;109557;1259;67384;-87
2023/03/30 00:45:17;;;;;;;7.30;5.40;;;;;;;24.68;14.40;101317.86;109609;1260;67658;-86
2023/03/30 00:47:55;;;;;;;7.20;5.70;;;;;;;24.68;14.19;101314.77;109637;1259;66928;-86
2023/03/30 00:50:22;;;;;;;6.90;5.50;;;;;;;24.68;14.23;101314.77;109492;1260;74130;-86
2023/03/30 00:52:51;;;;;;;6.80;5.40;;;;;;;24.68;14.21;101311.95;109499;1260;67075;-87
2023/03/30 00:55:16;;;;;;;6.80;5.40;;;;;;;24.68;14.14;101314.25;109529;1258;67731;-86
2023/03/30 01:00:22;;;;;;;5.80;5.20;;;;;;;24.68;14.34;101313.16;109317;1264;67630;-87
2023/03/30 01:02:55;;;;;;;6.80;5.20;;;;;;;24.68;14.20;101318.57;109464;1260;74305;-87
2023/03/30 01:05:23;;;;;;;5.80;4.80;;;;;;;24.68;14.12;101314.92;109347;1260;67548;-86
2023/03/30 01:07:48;;;;;;;6.70;5.30;;;;;;;24.68;14.18;101313.95;109554;1259;67795;-86
2023/03/30 01:10:14;;;;;;;6.30;5.00;;;;;;;24.69;14.03;101320.38;109522;1260;67592;-86
2023/03/30 01:12:49;;;;;;;6.50;5.30;;;;;;;24.69;14.13;101324.17;109581;1260;67595;-88
2023/03/30 01:15:15;;;;;;;8.00;5.50;;;;;;;24.68;14.12;101322.89;109549;1260;74358;-87
2023/03/30 02:40:24;;;;;;;6.60;4.40;;;;;;;24.58;14.12;101340.83;109680;1259;74543;-89
2023/03/30 03:12:40;;;;;;;11.50;5.70;;;;;;;24.51;14.26;101355.91;109450;1260;66869;-88
2023/03/30 03:17:46;;;;;;;9.90;5.50;;;;;;;24.49;14.83;101364.23;109922;1260;65243;-89
2023/03/30 03:22:59;;;;;;;6.80;4.30;;;;;;;24.47;15.35;101362.63;109815;1259;74599;-89
2023/03/30 04:10:30;;;;;;;12.50;7.10;;;;;;;23.50;13.76;101402.49;109686;1259;67010;-89
2023/03/30 04:43:46;;;;;;;13.10;7.20;;;;;;;23.26;13.61;101439.55;109167;1259;67817;-89
2023/03/30 04:46:15;;;;;;;8.30;6.60;;;;;;;23.27;13.69;101439.36;109474;1262;67393;-89
2023/03/30 04:48:44;;;;;;;11.50;6.70;;;;;;;23.28;13.51;101443.11;109566;1260;74741;-88
2023/03/30 04:51:32;;;;;;;10.20;6.40;;;;;;;23.29;13.61;101450.40;109371;1259;83956;-84
2023/03/30 04:54:01;;;;;;;14.30;6.50;;;;;;;23.29;13.71;101452.98;109654;1259;67051;-92
2023/03/30 04:56:26;;;;;;;8.30;6.10;;;;;;;23.31;13.87;101452.44;109595;1259;67147;-84
2023/03/30 04:58:53;;;;;;;12.40;6.90;;;;;;;23.33;13.93;101455.94;109352;1260;67243;-86
2023/03/30 05:01:18;;;;;;;12.00;6.50;;;;;;;23.34;14.05;101462.30;109418;1260;67877;-88
2023/03/30 05:03:44;;;;;;;14.20;5.90;;;;;;;23.36;14.16;101460.30;109262;1260;68152;-89
2023/03/30 05:06:11;;;;;;;15.40;6.20;;;;;;;23.39;14.33;101459.90;109543;1260;66996;-89
2023/03/30 05:08:38;;;;;;;16.70;6.50;;;;;;;23.40;14.44;101456.94;109383;1260;67786;-85
2023/03/30 05:11:05;;;;;;;11.10;6.70;;;;;;;23.43;14.57;101453.05;109420;1260;67616;-87
2023/03/30 05:13:36;;;;;;;16.90;6.80;;;;;;;23.45;14.52;101450.64;109438;1260;68030;-89
2023/03/30 05:16:06;;;;;;;11.90;7.20;;;;;;;23.46;14.57;101447.64;109533;1259;83165;-87
2023/03/30 05:30:31;;;;;;;7.80;5.80;;;;;;;23.49;14.90;101430.32;109651;1259;80745;-91
2023/03/30 05:33:04;;;;;;;11.80;6.10;;;;;;;23.50;14.79;101434.38;109500;1259;73316;31
2023/03/30 05:35:30;;;;;;;13.30;5.80;;;;;;;23.51;14.80;101439.54;109517;1260;67054;-90
2023/03/30 05:40:39;;;;;;;14.80;5.60;;;;;;;23.57;14.89;101444.34;109652;1260;67370;-91
2023/03/30 05:43:33;;;;;;;15.80;5.70;;;;;;;23.59;14.72;101445.30;109656;1259;74051;-89
2023/03/30 05:46:01;;;;;;;12.10;5.40;;;;;;;23.62;14.67;101445.99;109604;1260;67202;-89
2023/03/30 05:48:30;;;;;;;9.60;4.80;;;;;;;23.66;14.55;101444.63;109542;1260;68123;-90
2023/03/30 05:51:05;;;;;;;9.80;5.10;;;;;;;23.69;14.49;101441.86;109439;1261;66889;-90
2023/03/30 05:59:15;;;;;;;9.60;4.70;;;;;;;23.79;14.43;101451.77;109626;1260;67456;-87
2023/03/30 06:19:16;;;;;;;11.40;5.70;;;;;;;23.97;14.23;101463.31;109344;1262;67469;-91
2023/03/30 06:24:24;;;;;;;10.40;5.70;;;;;;;24.02;14.27;101469.87;109523;1262;74399;-90
2023/03/30 06:32:52;;;;;;;8.10;6.10;;;;;;;24.10;14.60;101473.89;109578;1260;67523;31
2023/03/30 06:52:23;;;;;;;8.60;5.90;;;;;;;24.25;14.50;101487.61;109569;1260;73707;-87
2023/03/30 06:54:53;;;;;;;11.50;6.00;;;;;;;24.28;14.43;101491.38;109629;1260;67380;-88
2023/03/30 06:57:23;;;;;;;15.90;7.10;;;;;;;24.27;14.36;101487.92;109509;1260;67279;-88
2023/03/30 06:59:52;;;;;;;26.70;19.20;;;;;;;24.27;14.35;101489.01;109389;1260;67776;-89
2023/03/30 07:05:14;;;;;;;24.70;16.90;;;;;;;24.27;14.41;101479.91;109287;1264;71305;-90
2023/03/30 07:07:44;;;;;;;22.50;16.30;;;;;;;24.30;14.30;101477.34;109473;1259;67677;-89
2023/03/30 07:10:12;;;;;;;36.00;15.80;;;;;;;24.34;14.18;101478.38;109571;1259;67949;-88
2023/03/30 07:12:40;;;;;;;53.40;15.40;;;;;;;24.37;14.33;101472.87;109657;1259;67004;-89
2023/03/30 07:15:15;;;;;;;41.50;13.20;;;;;;;24.39;14.44;101473.39;109432;1259;73847;-90
2023/03/30 07:17:46;;;;;;;36.10;14.10;;;;;;;24.40;14.35;101470.41;109486;1260;74208;-89
2023/03/30 07:29:00;;;;;;;16.80;8.60;;;;;;;24.44;14.60;101460.54;109589;1262;67546;-88
2023/03/30 07:31:26;;;;;;;14.20;7.60;;;;;;;24.46;14.43;101453.54;109347;1260;67651;-89
2023/03/30 07:33:52;;;;;;;15.80;7.80;;;;;;;24.48;14.41;101459.25;109537;1260;67939;-88
2023/03/30 07:36:25;;;;;;;13.40;7.40;;;;;;;24.48;14.43;101460.85;109459;1260;68120;-88
2023/03/30 07:38:54;;;;;;;15.50;6.40;;;;;;;24.49;14.45;101462.14;109379;1259;67707;-88
2023/03/30 07:46:56;;;;;;;11.70;6.30;;;;;;;24.51;13.89;101462.92;109538;1260;67588;-90
2023/03/30 07:49:33;;;;;;;8.00;5.40;;;;;;;24.53;13.87;101463.33;109333;1260;67378;-90
2023/03/30 07:52:01;;;;;;;17.30;5.50;;;;;;;24.56;13.93;101456.27;109323;1260;67528;-89
2023/03/30 07:54:28;;;;;;;8.40;5.20;;;;;;;24.58;14.20;101455.60;109531;1259;67805;-89
2023/03/30 07:57:04;;;;;;;10.20;5.10;;;;;;;24.58;13.89;101452.93;109328;1260;68057;-89
2023/03/30 07:59:31;;;;;;;6.90;4.80;;;;;;;24.59;13.86;101453.60;109628;1260;67941;-91
2023/03/30 08:01:59;;;;;;;7.80;4.50;;;;;;;24.60;13.93;101446.24;109549;1260;67692;-91
2023/03/30 08:04:30;;;;;;;10.40;4.70;;;;;;;24.61;13.73;101453.34;109463;1260;66949;-89
2023/03/30 08:06:56;;;;;;;9.00;4.80;;;;;;;24.63;13.74;101449.27;109701;1259;67040;-89
2023/03/30 08:09:22;;;;;;;11.60;5.00;;;;;;;24.65;14.15;101446.45;109425;1259;67366;-87
2023/03/30 08:11:49;;;;;;;13.00;5.00;;;;;;;24.69;14.33;101452.36;109353;1260;67414;-89
2023/03/30 08:14:22;;;;;;;7.70;4.80;;;;;;;24.73;14.64;101453.22;109409;1260;67550;-91
2023/03/30 08:16:49;;;;;;;8.10;5.00;;;;;;;24.76;14.66;101451.22;109747;1259;67297;-89
2023/03/30 08:19:15;;;;;;;8.40;4.70;;;;;;;24.79;14.81;101449.42;109405;1260;67475;-88
2023/03/30 08:21:42;;;;;;;6.90;4.50;;;;;;;24.80;14.96;101445.91;109495;1259;67508;-89
2023/03/30 08:24:10;;;;;;;7.50;4.20;;;;;;;24.81;14.95;101443.18;109457;1260;67371;-88
2023/03/30 08:26:36;;;;;;;10.60;4.60;;;;;;;24.82;14.98;101440.09;109357;1259;67665;-88
2023/03/30 08:31:49;;;;;;;7.60;4.40;;;;;;;24.86;14.91;101440.05;109259;1263;66938;-89
2023/03/30 08:34:15;;;;;;;6.80;3.50;;;;;;;24.88;14.99;101439.42;109238;1262;74158;-88
2023/03/30 08:36:41;;;;;;;6.40;3.80;;;;;;;24.89;14.82;101439.11;109320;1262;68020;-88
2023/03/30 08:39:07;;;;;;;10.30;3.70;;;;;;;24.88;14.89;101434.64;109227;1262;67606;-89
2023/03/30 08:44:38;;;;;;;8.40;3.60;;;;;;;24.88;14.58;101427.64;109194;1264;68045;-87
2023/03/30 08:47:19;;;;;;;7.80;3.30;;;;;;;24.87;14.66;101418.57;109413;1260;73995;-93
2023/03/30 08:52:27;;;;;;;9.90;3.70;;;;;;;24.85;14.37;101425.21;109491;1259;68155;-89
2023/03/30 08:54:58;;;;;;;6.60;3.50;;;;;;;24.85;14.39;101418.67;109297;1260;67439;-88
2023/03/30 08:57:43;;;;;;;5.40;3.50;;;;;;;24.85;14.31;101422.64;109279;1260;74118;-89
2023/03/30 09:00:34;;;;;;;7.50;3.70;;;;;;;24.84;14.36;101418.67;109239;1260;74186;-89
2023/03/30 09:03:39;;;;;;;8.00;3.50;;;;;;;24.85;14.49;101414.77;109361;1260;67318;-87
2023/03/30 09:06:19;;;;;;;10.40;3.80;;;;;;;24.84;14.36;101409.77;109639;1259;67557;-90
2023/03/30 09:08:45;;;;;;;8.80;4.00;;;;;;;24.83;14.23;101404.67;109629;1260;67159;-89
2023/03/30 09:11:19;;;;;;;10.00;4.00;;;;;;;24.83;14.34;101404.83;109448;1259;67409;-91
2023/03/30 09:13:45;;;;;;;11.20;3.80;;;;;;;24.83;14.29;101401.54;109492;1260;74138;-90
2023/03/30 09:16:10;;;;;;;5.20;3.40;;;;;;;24.83;14.07;101397.95;109217;1259;67765;-87
2023/03/30 09:18:40;;;;;;;6.20;3.60;;;;;;;24.84;14.07;101392.63;109565;1259;67147;-89
2023/03/30 09:21:08;;;;;;;6.70;3.60;;;;;;;24.84;14.14;101393.15;109232;1260;67577;-88
2023/03/30 09:23:34;;;;;;;9.50;3.80;;;;;;;24.83;14.00;101387.27;109509;1260;67435;-87
2023/03/30 09:26:06;;;;;;;7.10;3.50;;;;;;;24.83;13.94;101382.54;109206;1260;74059;-92
2023/03/30 09:28:32;;;;;;;8.70;3.80;;;;;;;24.82;13.91;101376.98;109061;1259;68021;-87
2023/03/30 09:31:15;;;;;;;9.00;3.50;;;;;;;24.82;13.89;101370.24;109293;1260;68077;-88
2023/03/30 09:34:01;;;;;;;6.30;3.40;;;;;;;24.81;13.73;101365.56;109365;1259;67969;-89
2023/03/30 09:36:36;;;;;;;7.70;3.50;;;;;;;24.76;13.67;101366.56;109229;1260;67321;-89
2023/03/30 09:39:08;;;;;;;7.40;3.30;;;;;;;24.73;13.61;101370.73;109503;1260;74379;-89
2023/03/30 09:41:56;;;;;;;8.40;3.40;;;;;;;24.72;13.39;101360.23;109400;1259;66993;-89
2023/03/30 09:44:27;;;;;;;6.40;3.30;;;;;;;24.70;13.50;101355.27;109569;1260;66968;-89
2023/03/30 09:46:57;;;;;;;4.10;3.00;;;;;;;24.69;13.60;101352.90;109422;1260;67792;-88
2023/03/30 09:49:25;;;;;;;4.30;2.70;;;;;;;24.68;13.61;101346.66;109452;1260;67727;-89
2023/03/30 09:52:17;;;;;;;6.70;2.90;;;;;;;24.70;13.64;101339.23;109376;1260;74044;-88
2023/03/30 09:54:43;;;;;;;4.60;3.00;;;;;;;24.71;13.82;101339.64;109369;1260;68061;-89
2023/03/30 09:57:31;;;;;;;4.30;2.90;;;;;;;24.72;13.54;101339.98;109404;1260;68104;-89
2023/03/30 09:59:58;;;;;;;5.10;3.00;;;;;;;24.71;13.84;101337.31;109637;1260;67272;-87
2023/03/30 10:02:26;;;;;;;7.80;3.00;;;;;;;24.69;13.73;101328.35;109469;1262;67857;-87
2023/03/30 10:04:52;;;;;;;9.20;3.10;;;;;;;24.69;13.70;101328.55;109183;1264;74826;-88
2023/03/30 10:07:21;;;;;;;5.70;3.00;;;;;;;24.69;13.50;101325.73;109475;1260;67798;-86
2023/03/30 10:10:35;;;;;;;6.40;3.10;;;;;;;24.71;13.70;101322.65;109425;1259;67031;-87
2023/03/30 10:21:26;;;;;;;7.30;2.80;;;;;;;24.74;13.33;101303.52;109356;1261;67772;-89
2023/03/30 10:24:08;;;;;;;5.20;2.70;;;;;;;24.75;13.23;101293.84;109165;1263;67107;-89
2023/03/30 10:29:28;;;;;;;;;;;;;;;;;;;;;
2023/03/30 11:00:54;;;;;;;6.90;2.90;;;;;;;24.73;12.85;101237.74;109505;1260;74558;-90
2023/03/30 11:03:28;;;;;;;11.30;2.80;;;;;;;24.74;13.16;101232.44;109530;1259;67525;-90
2023/03/30 11:08:45;;;;;;;6.10;2.70;;;;;;;24.73;13.25;101211.96;109417;1260;66987;-89
2023/03/30 11:11:18;;;;;;;8.70;2.80;;;;;;;24.73;13.20;101214.27;109333;1260;67607;-90
2023/03/30 11:13:55;;;;;;;9.50;3.10;;;;;;;24.73;12.99;101204.50;109504;1260;74387;-89
2023/03/30 11:19:12;;;;;;;13.90;3.10;;;;;;;24.76;13.11;101200.17;109479;1260;67474;-89
2023/03/30 11:24:19;;;;;;;9.40;2.80;;;;;;;24.76;13.08;101188.75;109560;1260;67035;-89
2023/03/30 11:26:48;;;;;;;6.20;2.70;;;;;;;24.77;13.19;101180.88;109488;1260;74158;-88
2023/03/30 11:32:31;;;;;;;5.20;2.60;;;;;;;24.80;13.27;101179.05;109298;1259;67688;-89
2023/03/30 11:35:09;;;;;;;4.90;2.60;;;;;;;24.80;13.18;101177.92;109159;1260;68418;-89
2023/03/30 11:38:01;;;;;;;6.40;2.90;;;;;;;24.80;13.06;101169.36;109404;1260;67476;-89
2023/03/30 11:42:55;;;;;;;10.30;7.20;;;;;;;24.82;13.53;101164.94;109601;1260;67659;-89
2023/03/30 11:48:20;;;;;;;7.60;6.10;;;;;;;24.85;13.20;101144.34;109459;1260;67365;-90
2023/03/30 11:50:54;;;;;;;10.10;6.30;;;;;;;24.86;13.23;101137.89;109570;1260;67490;-90
2023/03/30 11:53:23;;;;;;;10.10;5.20;;;;;;;24.87;13.08;101132.95;109566;1260;74360;-89
2023/03/30 11:58:46;;;;;;;7.30;4.90;;;;;;;24.90;13.45;101129.07;109192;1264;67605;-89
2023/03/30 12:06:59;;;;;;;10.10;6.50;;;;;;;24.94;13.45;101117.35;109416;1262;74560;-90
2023/03/30 12:09:33;;;;;;;8.60;6.40;;;;;;;24.97;13.52;101118.92;109174;1262;67035;-90
2023/03/30 12:17:50;;;;;;;8.00;5.60;;;;;;;25.03;13.96;101110.55;109403;1260;67674;-90
2023/03/30 12:23:22;;;;;;;8.10;4.80;;;;;;;25.08;13.85;101104.09;109306;1260;67786;-91
2023/03/30 12:26:08;;;;;;;8.70;4.50;;;;;;;25.09;13.88;101103.50;109489;1260;67433;-91
2023/03/30 12:34:09;;;;;;;10.00;4.10;;;;;;;25.11;13.57;101090.27;109197;1264;74219;-90
2023/03/30 12:36:39;;;;;;;10.20;4.60;;;;;;;25.10;13.70;101083.58;109062;1264;67431;-90
2023/03/30 12:39:25;;;;;;;12.20;4.20;;;;;;;25.09;13.75;101080.70;109129;1264;67389;-90
2023/03/30 12:42:04;;;;;;;9.90;3.80;;;;;;;25.04;13.77;101080.27;109043;1264;67572;-90
2023/03/30 12:44:49;;;;;;;7.40;3.30;;;;;;;24.95;13.85;101078.84;109115;1264;67213;-90
2023/03/30 12:47:17;;;;;;;6.90;3.20;;;;;;;24.86;13.71;101073.20;109038;1265;74315;-89
2023/03/30 12:53:05;;;;;;;6.30;2.70;;;;;;;24.78;13.41;101063.42;109351;1264;67559;-90
2023/03/30 12:55:53;;;;;;;6.50;3.30;;;;;;;24.76;13.24;101057.63;109402;1263;67786;-90
2023/03/30 13:14:45;;;;;;;7.40;3.90;;;;;;;24.83;13.17;101044.42;109329;1264;75649;-88
2023/03/30 13:17:15;;;;;;;8.00;4.20;;;;;;;24.85;13.35;101041.19;109267;1264;67613;-89
2023/03/30 13:22:31;;;;;;;11.50;7.00;;;;;;;24.88;12.92;101029.08;109576;1260;66972;-89
2023/03/30 13:27:40;;;;;;;12.30;10.20;;;;;;;24.94;13.10;101024.29;109349;1264;73969;-89
2023/03/30 13:30:11;;;;;;;11.60;9.70;;;;;;;24.98;13.26;101017.30;109485;1260;67684;-89
2023/03/30 13:32:55;;;;;;;11.00;8.90;;;;;;;25.02;13.07;101018.15;109268;1261;67638;-89
2023/03/30 13:35:30;;;;;;;11.70;9.10;;;;;;;25.04;13.19;101012.40;109435;1260;67197;-89
2023/03/30 13:41:10;;;;;;;12.50;8.20;;;;;;;25.11;13.26;101011.63;109510;1261;74621;-89
2023/03/30 13:43:46;;;;;;;7.90;7.00;;;;;;;25.14;13.05;101006.61;109471;1263;67626;-89
2023/03/30 13:46:26;;;;;;;9.40;6.70;;;;;;;25.17;13.18;100999.13;109496;1261;67628;-89
2023/03/30 13:49:04;;;;;;;;;;;;;;;25.20;13.14;100994.92;109478;1263;67398;-89
2023/03/30 13:51:29;;;;;;;6.90;5.80;;;;;;;25.19;13.09;100991.78;109312;1262;67025;-88
2023/03/30 13:53:57;;;;;;;7.30;5.60;;;;;;;25.22;13.24;100981.41;109487;1262;67726;-88
2023/03/30 13:56:23;;;;;;;7.30;5.50;;;;;;;25.23;13.16;100979.30;109339;1261;66948;-88
2023/03/30 13:59:11;;;;;;;7.10;5.00;;;;;;;25.24;12.88;100983.97;109473;1262;66880;-88
2023/03/30 14:01:37;;;;;;;6.90;4.80;;;;;;;25.26;13.00;100981.33;109404;1260;67524;-89
2023/03/30 14:04:04;;;;;;;7.10;4.70;;;;;;;25.29;12.90;100979.54;109401;1263;67556;-89
2023/03/30 14:06:33;;;;;;;5.50;4.40;;;;;;;25.32;12.73;100980.75;109583;1260;75127;-89
2023/03/30 14:09:04;;;;;;;5.60;4.90;;;;;;;25.34;12.90;100981.44;109372;1260;67622;-89
2023/03/30 14:11:43;;;;;;;9.00;4.80;;;;;;;25.38;12.88;100978.68;109496;1260;67498;-88
2023/03/30 14:14:15;;;;;;;5.50;4.00;;;;;;;25.39;12.83;100981.80;109565;1261;67301;-88
2023/03/30 14:16:40;;;;;;;7.00;3.80;;;;;;;25.39;12.76;100978.98;109340;1260;67621;-88
2023/03/30 14:19:28;;;;;;;4.30;3.40;;;;;;;25.40;12.71;100965.81;109594;1260;67472;-89
2023/03/30 14:21:59;;;;;;;8.30;3.40;;;;;;;25.42;12.66;100967.10;109467;1260;67251;-93
2023/03/30 14:24:32;;;;;;;4.70;3.20;;;;;;;25.43;12.52;100964.63;109444;1261;67467;-88
2023/03/30 14:27:13;;;;;;;4.30;3.20;;;;;;;25.45;12.57;100961.69;109410;1260;67533;-88
2023/03/30 14:29:46;;;;;;;6.50;3.60;;;;;;;25.45;12.44;100953.80;109539;1260;67433;-88
2023/03/30 14:32:12;;;;;;;6.90;3.90;;;;;;;25.46;12.49;100954.51;109468;1260;74189;-89
2023/03/30 14:34:38;;;;;;;4.20;3.50;;;;;;;25.48;12.75;100953.37;109509;1260;66980;-89
2023/03/30 14:37:05;;;;;;;5.40;3.90;;;;;;;25.50;12.64;100952.40;109545;1260;66939;-88
2023/03/30 14:39:31;;;;;;;8.40;3.90;;;;;;;25.50;12.58;100948.33;109309;1260;67549;-88
2023/03/30 14:41:58;;;;;;;5.40;3.50;;;;;;;25.52;12.51;100945.62;109472;1260;66880;-88
2023/03/30 14:44:24;;;;;;;5.90;3.70;;;;;;;25.53;12.40;100934.85;109277;1260;67516;-89
2023/03/30 14:46:51;;;;;;;5.80;3.50;;;;;;;25.54;12.64;100935.40;109419;1260;67168;-89
2023/03/30 14:49:20;;;;;;;4.90;3.70;;;;;;;25.55;12.37;100933.80;109455;1260;66823;-89
2023/03/30 14:51:51;;;;;;;4.60;3.20;;;;;;;25.55;12.48;100926.69;109483;1260;67448;-90
2023/03/30 14:54:20;;;;;;;4.40;3.10;;;;;;;25.56;12.48;100920.48;109398;1260;66917;-89
2023/03/30 14:56:58;;;;;;;3.90;3.20;;;;;;;25.57;12.49;100920.27;109456;1261;74219;-88
2023/03/30 14:59:25;;;;;;;5.60;3.60;;;;;;;25.57;12.45;100917.90;109418;1260;67536;-88
2023/03/30 15:01:51;;;;;;;7.50;3.50;;;;;;;25.58;12.32;100916.52;109450;1261;67616;-88
2023/03/30 15:04:16;;;;;;;5.00;3.40;;;;;;;25.58;12.39;100913.05;109412;1260;67469;-89
2023/03/30 15:06:47;;;;;;;6.40;3.60;;;;;;;25.59;12.40;100914.94;109391;1260;67534;-92
2023/03/30 15:09:19;;;;;;;7.30;3.40;;;;;;;25.59;12.29;100914.17;109374;1260;74438;-88
2023/03/30 15:11:49;;;;;;;4.90;3.00;;;;;;;25.59;12.15;100917.01;109497;1260;67632;-88
2023/03/30 15:14:17;;;;;;;3.80;3.10;;;;;;;25.60;12.38;100908.44;109456;1260;66950;-89
2023/03/30 15:16:43;;;;;;;4.70;3.00;;;;;;;25.61;12.40;100907.03;109336;1260;67481;-88
2023/03/30 15:19:15;;;;;;;7.30;3.10;;;;;;;25.62;12.35;100909.96;109232;1260;67820;-87
2023/03/30 15:21:44;;;;;;;4.30;3.20;;;;;;;25.63;12.24;100906.92;109221;1261;75516;-91
2023/03/30 15:24:22;;;;;;;5.50;3.00;;;;;;;25.63;12.21;100906.65;109485;1260;67560;-87
2023/03/30 15:26:47;;;;;;;5.10;3.10;;;;;;;25.63;12.33;100905.41;109430;1260;67560;-88
2023/03/30 15:29:14;;;;;;;5.00;3.00;;;;;;;25.63;12.54;100899.64;109440;1260;67632;-88
2023/03/30 15:31:42;;;;;;;7.80;2.90;;;;;;;25.64;12.43;100897.11;109420;1260;67487;-87
2023/03/30 15:34:13;;;;;;;6.40;3.10;;;;;;;25.65;12.50;100895.23;109297;1260;75260;-88
2023/03/30 15:36:41;;;;;;;3.80;3.00;;;;;;;25.64;12.35;100897.05;109459;1260;66893;-91
2023/03/30 15:39:20;;;;;;;3.70;2.80;;;;;;;25.65;12.36;100893.84;109374;1260;67618;-88
2023/03/30 15:41:57;;;;;;;5.20;2.90;;;;;;;25.65;12.45;100894.82;109463;1261;67675;-88
2023/03/30 15:44:23;;;;;;;4.30;2.70;;;;;;;25.65;12.50;100890.55;109459;1260;67543;-88
2023/03/30 15:46:49;;;;;;;4.40;2.90;;;;;;;25.65;12.48;100894.71;109433;1260;67557;-88
2023/03/30 15:49:16;;;;;;;3.90;2.90;;;;;;;25.65;12.45;100892.86;109444;1261;67580;-88
2023/03/30 15:51:44;;;;;;;3.90;2.70;;;;;;;25.66;12.38;100894.80;109278;1260;66894;-88
2023/03/30 15:54:14;;;;;;;7.30;2.70;;;;;;;25.66;12.28;100894.23;109394;1260;66911;-88
2023/03/30 15:57:07;;;;;;;4.80;3.20;;;;;;;25.66;12.32;100896.40;109460;1260;67476;-88
2023/03/30 15:59:43;;;;;;;5.80;2.90;;;;;;;25.66;12.50;100897.23;109534;1260;74227;-88
2023/03/30 16:02:14;;;;;;;4.60;2.90;;;;;;;25.66;12.50;100889.86;109442;1260;67551;-88
2023/03/30 16:04:40;;;;;;;5.20;2.70;;;;;;;25.67;12.29;100889.64;109283;1263;67769;-88
2023/03/30 16:07:21;;;;;;;3.30;2.70;;;;;;;25.67;12.48;100886.44;109510;1260;67567;-88
2023/03/30 16:09:47;;;;;;;5.20;2.90;;;;;;;25.67;12.34;100886.55;109277;1260;67581;-88
2023/03/30 16:12:18;;;;;;;4.00;3.00;;;;;;;25.67;12.38;100883.00;109454;1261;67548;-88
2023/03/30 16:14:43;;;;;;;3.30;2.80;;;;;;;25.67;12.41;100883.45;109358;1260;67600;-88
2023/03/30 16:17:12;;;;;;;4.10;3.20;;;;;;;25.68;12.45;100883.50;109375;1260;67594;-88
2023/03/30 16:19:40;;;;;;;3.60;2.90;;;;;;;25.68;12.37;100888.50;109340;1260;66849;-88
2023/03/30 16:22:07;;;;;;;4.10;2.70;;;;;;;25.69;12.38;100886.69;109361;1261;66920;-88
2023/03/30 16:24:32;;;;;;;3.80;2.80;;;;;;;25.69;12.43;100888.70;109327;1260;74190;-89
2023/03/30 16:26:58;;;;;;;5.50;2.80;;;;;;;25.68;12.51;100889.36;109487;1265;67547;-88
2023/03/30 16:29:24;;;;;;;3.70;2.90;;;;;;;25.68;12.27;100893.14;109395;1260;67498;-88
2023/03/30 16:31:49;;;;;;;3.90;2.90;;;;;;;25.68;12.46;100892.84;109391;1266;67608;-88
2023/03/30 16:34:15;;;;;;;5.00;2.90;;;;;;;25.69;12.41;100895.39;109335;1261;67583;-87
2023/03/30 16:36:44;;;;;;;5.10;3.40;;;;;;;25.69;12.63;100889.72;109373;1261;67510;-88
2023/03/30 16:41:55;;;;;;;5.30;3.00;;;;;;;25.69;12.62;100883.48;109250;1263;66946;-88
2023/03/30 16:44:21;;;;;;;3.90;3.00;;;;;;;25.70;12.48;100879.92;109070;1264;67050;-88
2023/03/30 16:46:47;;;;;;;6.90;3.00;;;;;;;25.70;12.60;100882.19;109005;1263;67255;-87
2023/03/30 16:49:17;;;;;;;5.00;3.00;;;;;;;25.71;12.53;100882.80;109076;1264;67528;-88
2023/03/30 16:51:43;;;;;;;4.90;2.90;;;;;;;25.71;12.67;100886.77;109119;1264;67565;-88
2023/03/30 16:54:09;;;;;;;4.80;3.00;;;;;;;25.70;12.66;100884.60;109062;1269;67562;-88
2023/03/30 16:56:34;;;;;;;6.30;3.30;;;;;;;25.71;12.61;100881.83;109144;1264;67425;-88
2023/03/30 16:59:00;;;;;;;4.70;3.20;;;;;;;25.71;12.36;100881.83;109243;1263;66974;-88
2023/03/30 17:01:26;;;;;;;4.60;3.00;;;;;;;25.71;12.53;100878.42;109112;1264;67554;-87
2023/03/30 17:03:52;;;;;;;5.20;2.70;;;;;;;25.71;12.50;100877.86;109218;1264;67537;-88
2023/03/30 17:06:20;;;;;;;4.90;3.20;;;;;;;25.71;12.44;100876.04;109323;1263;67632;-88
2023/03/30 17:08:46;;;;;;;4.40;3.20;;;;;;;25.71;12.48;100874.66;109135;1264;75277;-88
2023/03/30 17:11:12;;;;;;;4.40;3.00;;;;;;;25.71;12.45;100873.00;109077;1264;67989;-88
2023/03/30 17:13:38;;;;;;;4.20;3.20;;;;;;;25.72;12.55;100873.73;109207;1264;67539;-88
2023/03/30 17:16:03;;;;;;;4.50;3.00;;;;;;;25.72;12.66;100871.08;109013;1263;67745;-88
2023/03/30 17:18:30;;;;;;;4.40;3.10;;;;;;;25.72;12.92;100870.25;109246;1263;66964;-88
2023/03/30 17:20:56;;;;;;;8.50;3.50;;;;;;;25.71;12.75;100867.88;109019;1264;67575;-88
2023/03/30 17:23:23;;;;;;;5.00;2.90;;;;;;;25.72;12.52;100866.77;108991;1264;67681;-88
2023/03/30 17:25:49;;;;;;;4.70;3.40;;;;;;;25.71;12.65;100863.77;109270;1263;67552;-88
2023/03/30 17:28:22;;;;;;;7.30;3.10;;;;;;;25.72;12.90;100862.53;109113;1264;67579;-88
2023/03/30 17:30:48;;;;;;;3.70;3.00;;;;;;;25.71;12.87;100860.33;109126;1264;67701;-88
2023/03/30 17:33:13;;;;;;;7.40;3.40;;;;;;;25.71;12.70;100858.93;109210;1264;67805;-89
2023/03/30 17:35:39;;;;;;;4.70;3.10;;;;;;;25.71;12.88;100861.77;109086;1264;67501;-88
2023/03/30 17:38:08;;;;;;;5.80;3.50;;;;;;;25.72;12.85;100864.08;109236;1263;67552;-88
2023/03/30 17:40:37;;;;;;;4.10;3.10;;;;;;;25.71;12.87;100856.36;109281;1263;67589;-88
2023/03/30 17:43:04;;;;;;;5.70;3.30;;;;;;;25.71;12.95;100853.93;109135;1264;67639;-88
2023/03/30 17:45:32;;;;;;;5.30;3.40;;;;;;;25.71;12.86;100853.52;109274;1264;73968;-88
2023/03/30 17:47:58;;;;;;;5.00;3.70;;;;;;;25.71;12.78;100846.45;109242;1264;66916;-88
2023/03/30 17:50:33;;;;;;;6.10;3.80;;;;;;;25.71;12.85;100840.02;109561;1260;67470;-89
2023/03/30 17:52:59;;;;;;;4.30;3.40;;;;;;;25.71;12.82;100838.83;109338;1260;67541;-88
2023/03/30 17:55:26;;;;;;;5.90;4.00;;;;;;;25.71;12.75;100837.76;109492;1260;67909;-88
2023/03/30 17:57:52;;;;;;;6.80;3.40;;;;;;;25.71;13.02;100840.73;109469;1260;67538;-88
2023/03/30 18:00:18;;;;;;;5.00;3.60;;;;;;;25.71;12.91;100847.85;109137;1260;66974;-88
2023/03/30 18:02:44;;;;;;;6.20;3.80;;;;;;;25.70;12.88;100848.79;109529;1260;66828;-88
2023/03/30 18:05:10;;;;;;;9.60;3.70;;;;;;;25.70;12.81;100849.20;109446;1261;67632;-88
2023/03/30 18:07:35;;;;;;;10.70;3.90;;;;;;;25.70;12.86;100847.76;109546;1261;67555;-88